sensor_id;sensor_type;location;lat;lon;timestamp;P1;durP1;ratioP1;P2;durP2;ratioP2
2522;SDS011;1272;53.332;9.860;2023-12-14T00:02:02;3.10;;;2.80;;
2522;SDS011;1272;53.332;9.860;2023-12-14T00:04:28;4.87;;;2.57;;
2522;SDS011;1272;53.332;9.860;2023-12-14T00:06:54;2.60;;;2.40;;
2522;SDS011;1272;53.332;9.860;2023-12-14T00:09:19;2.63;;;2.43;;
2522;SDS011;1272;53.332;9.860;2023-12-14T00:11:45;3.83;;;2.90;;
2522;SDS011;1272;53.332;9.860;2023-12-14T00:14:10;3.73;;;2.23;;
2522;SDS011;1272;53.332;9.860;2023-12-14T00:16:36;3.37;;;2.30;;
2522;SDS011;1272;53.332;9.860;2023-12-14T00:19:02;4.03;;;2.60;;
2522;SDS011;1272;53.332;9.860;2023-12-14T00:21:28;1.83;;;1.70;;
2522;SDS011;1272;53.332;9.860;2023-12-14T00:23:53;6.20;;;2.77;;
2522;SDS011;1272;53.332;9.860;2023-12-14T00:26:19;1.97;;;1.80;;
2522;SDS011;1272;53.332;9.860;2023-12-14T00:28:45;2.50;;;2.30;;
2522;SDS011;1272;53.332;9.860;2023-12-14T00:31:10;3.50;;;2.33;;
2522;SDS011;1272;53.332;9.860;2023-12-14T00:33:36;2.13;;;1.70;;
2522;SDS011;1272;53.332;9.860;2023-12-14T00:36:02;3.57;;;2.27;;
2522;SDS011;1272;53.332;9.860;2023-12-14T00:38:27;3.53;;;2.00;;
2522;SDS011;1272;53.332;9.860;2023-12-14T00:40:53;2.63;;;2.40;;
2522;SDS011;1272;53.332;9.860;2023-12-14T00:43:19;2.00;;;1.80;;
2522;SDS011;1272;53.332;9.860;2023-12-14T00:45:44;4.80;;;2.13;;
2522;SDS011;1272;53.332;9.860;2023-12-14T00:48:11;2.70;;;2.50;;
2522;SDS011;1272;53.332;9.860;2023-12-14T00:50:36;1.70;;;1.60;;
2522;SDS011;1272;53.332;9.860;2023-12-14T00:53:02;2.03;;;1.93;;
2522;SDS011;1272;53.332;9.860;2023-12-14T00:55:27;2.40;;;1.53;;
2522;SDS011;1272;53.332;9.860;2023-12-14T00:57:53;2.90;;;2.27;;
2522;SDS011;1272;53.332;9.860;2023-12-14T01:00:19;3.73;;;2.17;;
2522;SDS011;1272;53.332;9.860;2023-12-14T01:02:45;2.40;;;2.20;;
2522;SDS011;1272;53.332;9.860;2023-12-14T01:05:10;2.67;;;2.47;;
2522;SDS011;1272;53.332;9.860;2023-12-14T01:07:36;3.37;;;2.20;;
2522;SDS011;1272;53.332;9.860;2023-12-14T01:10:02;2.23;;;2.03;;
2522;SDS011;1272;53.332;9.860;2023-12-14T01:12:28;2.30;;;2.20;;
2522;SDS011;1272;53.332;9.860;2023-12-14T01:14:54;2.20;;;2.00;;
2522;SDS011;1272;53.332;9.860;2023-12-14T01:17:20;2.93;;;2.00;;
2522;SDS011;1272;53.332;9.860;2023-12-14T01:19:45;2.20;;;2.10;;
2522;SDS011;1272;53.332;9.860;2023-12-14T01:22:11;2.67;;;2.43;;
2522;SDS011;1272;53.332;9.860;2023-12-14T01:24:37;2.40;;;2.00;;
2522;SDS011;1272;53.332;9.860;2023-12-14T01:27:02;3.00;;;1.90;;
2522;SDS011;1272;53.332;9.860;2023-12-14T01:29:28;2.20;;;2.00;;
2522;SDS011;1272;53.332;9.860;2023-12-14T01:31:54;2.30;;;2.10;;
2522;SDS011;1272;53.332;9.860;2023-12-14T01:34:20;2.13;;;1.80;;
2522;SDS011;1272;53.332;9.860;2023-12-14T01:36:45;2.07;;;1.90;;
2522;SDS011;1272;53.332;9.860;2023-12-14T01:39:11;1.93;;;1.73;;
2522;SDS011;1272;53.332;9.860;2023-12-14T01:41:37;2.47;;;1.50;;
2522;SDS011;1272;53.332;9.860;2023-12-14T01:44:02;2.03;;;1.80;;
2522;SDS011;1272;53.332;9.860;2023-12-14T01:46:28;4.43;;;1.53;;
2522;SDS011;1272;53.332;9.860;2023-12-14T01:48:54;1.37;;;1.27;;
2522;SDS011;1272;53.332;9.860;2023-12-14T01:51:19;2.10;;;1.47;;
2522;SDS011;1272;53.332;9.860;2023-12-14T01:53:45;3.43;;;1.57;;
2522;SDS011;1272;53.332;9.860;2023-12-14T01:56:11;2.30;;;1.63;;
2522;SDS011;1272;53.332;9.860;2023-12-14T01:58:36;1.57;;;1.40;;
2522;SDS011;1272;53.332;9.860;2023-12-14T02:03:49;1.70;;;1.60;;
2522;SDS011;1272;53.332;9.860;2023-12-14T02:06:16;2.70;;;1.53;;
2522;SDS011;1272;53.332;9.860;2023-12-14T02:08:42;2.23;;;1.60;;
2522;SDS011;1272;53.332;9.860;2023-12-14T02:11:07;1.63;;;1.43;;
2522;SDS011;1272;53.332;9.860;2023-12-14T02:13:33;1.73;;;1.63;;
2522;SDS011;1272;53.332;9.860;2023-12-14T02:15:59;2.10;;;1.27;;
2522;SDS011;1272;53.332;9.860;2023-12-14T02:18:25;1.20;;;1.10;;
2522;SDS011;1272;53.332;9.860;2023-12-14T02:20:51;1.30;;;1.17;;
2522;SDS011;1272;53.332;9.860;2023-12-14T02:23:17;1.70;;;1.60;;
2522;SDS011;1272;53.332;9.860;2023-12-14T02:25:42;1.43;;;1.33;;
2522;SDS011;1272;53.332;9.860;2023-12-14T02:28:08;1.30;;;1.20;;
2522;SDS011;1272;53.332;9.860;2023-12-14T02:30:34;1.47;;;1.37;;
2522;SDS011;1272;53.332;9.860;2023-12-14T02:33:00;1.00;;;1.00;;
2522;SDS011;1272;53.332;9.860;2023-12-14T02:35:25;1.47;;;1.37;;
2522;SDS011;1272;53.332;9.860;2023-12-14T02:37:51;2.30;;;1.50;;
2522;SDS011;1272;53.332;9.860;2023-12-14T02:40:18;1.93;;;1.70;;
2522;SDS011;1272;53.332;9.860;2023-12-14T02:42:43;1.53;;;1.13;;
2522;SDS011;1272;53.332;9.860;2023-12-14T02:45:09;2.10;;;1.80;;
2522;SDS011;1272;53.332;9.860;2023-12-14T02:47:35;1.40;;;1.20;;
2522;SDS011;1272;53.332;9.860;2023-12-14T02:50:00;1.40;;;1.30;;
2522;SDS011;1272;53.332;9.860;2023-12-14T02:52:27;1.67;;;1.17;;
2522;SDS011;1272;53.332;9.860;2023-12-14T02:54:52;1.70;;;1.53;;
2522;SDS011;1272;53.332;9.860;2023-12-14T02:57:18;1.57;;;1.37;;
2522;SDS011;1272;53.332;9.860;2023-12-14T02:59:44;1.53;;;1.07;;
2522;SDS011;1272;53.332;9.860;2023-12-14T03:02:09;1.23;;;1.23;;
2522;SDS011;1272;53.332;9.860;2023-12-14T03:04:37;1.53;;;1.43;;
2522;SDS011;1272;53.332;9.860;2023-12-14T03:07:04;1.23;;;1.13;;
2522;SDS011;1272;53.332;9.860;2023-12-14T03:09:30;2.30;;;1.27;;
2522;SDS011;1272;53.332;9.860;2023-12-14T03:11:56;1.60;;;1.50;;
2522;SDS011;1272;53.332;9.860;2023-12-14T03:14:22;1.50;;;1.40;;
2522;SDS011;1272;53.332;9.860;2023-12-14T03:16:48;1.73;;;1.63;;
2522;SDS011;1272;53.332;9.860;2023-12-14T03:19:14;1.90;;;1.80;;
2522;SDS011;1272;53.332;9.860;2023-12-14T03:21:41;2.13;;;1.30;;
2522;SDS011;1272;53.332;9.860;2023-12-14T03:24:07;1.20;;;1.10;;
2522;SDS011;1272;53.332;9.860;2023-12-14T03:26:32;4.30;;;1.40;;
2522;SDS011;1272;53.332;9.860;2023-12-14T03:28:58;1.53;;;1.10;;
2522;SDS011;1272;53.332;9.860;2023-12-14T03:31:24;2.40;;;1.30;;
2522;SDS011;1272;53.332;9.860;2023-12-14T03:33:50;1.50;;;1.40;;
2522;SDS011;1272;53.332;9.860;2023-12-14T03:36:15;1.60;;;1.50;;
2522;SDS011;1272;53.332;9.860;2023-12-14T03:38:41;1.10;;;1.10;;
2522;SDS011;1272;53.332;9.860;2023-12-14T03:41:07;1.00;;;1.00;;
2522;SDS011;1272;53.332;9.860;2023-12-14T03:43:32;1.97;;;1.40;;
2522;SDS011;1272;53.332;9.860;2023-12-14T03:45:58;1.77;;;1.67;;
2522;SDS011;1272;53.332;9.860;2023-12-14T03:48:24;1.70;;;1.60;;
2522;SDS011;1272;53.332;9.860;2023-12-14T03:50:49;2.30;;;1.60;;
2522;SDS011;1272;53.332;9.860;2023-12-14T03:53:15;1.27;;;1.17;;
2522;SDS011;1272;53.332;9.860;2023-12-14T03:55:40;2.03;;;1.60;;
2522;SDS011;1272;53.332;9.860;2023-12-14T03:58:06;1.57;;;1.47;;
2522;SDS011;1272;53.332;9.860;2023-12-14T04:00:32;1.20;;;1.10;;
2522;SDS011;1272;53.332;9.860;2023-12-14T04:02:57;2.43;;;1.50;;
2522;SDS011;1272;53.332;9.860;2023-12-14T04:05:23;1.40;;;1.30;;
2522;SDS011;1272;53.332;9.860;2023-12-14T04:07:49;1.73;;;1.13;;
2522;SDS011;1272;53.332;9.860;2023-12-14T04:10:14;1.70;;;1.60;;
2522;SDS011;1272;53.332;9.860;2023-12-14T04:12:40;1.70;;;1.60;;
2522;SDS011;1272;53.332;9.860;2023-12-14T04:15:07;2.00;;;1.90;;
2522;SDS011;1272;53.332;9.860;2023-12-14T04:17:34;1.60;;;1.50;;
2522;SDS011;1272;53.332;9.860;2023-12-14T04:20:00;2.03;;;1.60;;
2522;SDS011;1272;53.332;9.860;2023-12-14T04:22:26;1.47;;;1.10;;
2522;SDS011;1272;53.332;9.860;2023-12-14T04:24:52;1.83;;;1.70;;
2522;SDS011;1272;53.332;9.860;2023-12-14T04:27:18;1.50;;;1.40;;
2522;SDS011;1272;53.332;9.860;2023-12-14T04:29:43;1.63;;;1.50;;
2522;SDS011;1272;53.332;9.860;2023-12-14T04:32:09;2.43;;;1.67;;
2522;SDS011;1272;53.332;9.860;2023-12-14T04:34:35;1.93;;;1.70;;
2522;SDS011;1272;53.332;9.860;2023-12-14T04:37:01;2.30;;;2.10;;
2522;SDS011;1272;53.332;9.860;2023-12-14T04:39:27;2.10;;;2.00;;
2522;SDS011;1272;53.332;9.860;2023-12-14T04:41:52;1.70;;;1.57;;
2522;SDS011;1272;53.332;9.860;2023-12-14T04:44:19;6.07;;;1.80;;
2522;SDS011;1272;53.332;9.860;2023-12-14T04:46:46;2.83;;;1.47;;
2522;SDS011;1272;53.332;9.860;2023-12-14T04:49:12;1.13;;;1.13;;
2522;SDS011;1272;53.332;9.860;2023-12-14T04:51:38;1.50;;;1.40;;
2522;SDS011;1272;53.332;9.860;2023-12-14T04:54:03;1.70;;;1.60;;
2522;SDS011;1272;53.332;9.860;2023-12-14T04:56:29;1.90;;;1.80;;
2522;SDS011;1272;53.332;9.860;2023-12-14T04:58:55;2.33;;;2.13;;
2522;SDS011;1272;53.332;9.860;2023-12-14T05:01:20;2.30;;;1.60;;
2522;SDS011;1272;53.332;9.860;2023-12-14T05:03:46;1.33;;;1.23;;
2522;SDS011;1272;53.332;9.860;2023-12-14T05:06:12;2.10;;;2.00;;
2522;SDS011;1272;53.332;9.860;2023-12-14T05:08:38;2.73;;;1.60;;
2522;SDS011;1272;53.332;9.860;2023-12-14T05:11:04;1.70;;;1.60;;
2522;SDS011;1272;53.332;9.860;2023-12-14T05:13:29;4.50;;;1.87;;
2522;SDS011;1272;53.332;9.860;2023-12-14T05:15:55;1.83;;;1.50;;
2522;SDS011;1272;53.332;9.860;2023-12-14T05:18:22;2.93;;;1.70;;
2522;SDS011;1272;53.332;9.860;2023-12-14T05:20:48;4.23;;;1.57;;
2522;SDS011;1272;53.332;9.860;2023-12-14T05:23:15;1.70;;;1.60;;
2522;SDS011;1272;53.332;9.860;2023-12-14T05:25:41;2.30;;;2.13;;
2522;SDS011;1272;53.332;9.860;2023-12-14T05:28:06;2.00;;;1.67;;
2522;SDS011;1272;53.332;9.860;2023-12-14T05:30:32;2.30;;;2.10;;
2522;SDS011;1272;53.332;9.860;2023-12-14T05:32:58;2.13;;;2.03;;
2522;SDS011;1272;53.332;9.860;2023-12-14T05:35:23;2.03;;;1.43;;
2522;SDS011;1272;53.332;9.860;2023-12-14T05:37:49;2.17;;;1.80;;
2522;SDS011;1272;53.332;9.860;2023-12-14T05:40:14;2.77;;;2.57;;
2522;SDS011;1272;53.332;9.860;2023-12-14T05:42:40;1.83;;;1.33;;
2522;SDS011;1272;53.332;9.860;2023-12-14T05:45:06;2.27;;;1.60;;
2522;SDS011;1272;53.332;9.860;2023-12-14T05:47:32;3.30;;;2.23;;
2522;SDS011;1272;53.332;9.860;2023-12-14T05:49:59;1.83;;;1.73;;
2522;SDS011;1272;53.332;9.860;2023-12-14T05:52:26;1.73;;;1.63;;
2522;SDS011;1272;53.332;9.860;2023-12-14T05:54:51;2.10;;;1.90;;
2522;SDS011;1272;53.332;9.860;2023-12-14T05:57:17;1.90;;;1.80;;
2522;SDS011;1272;53.332;9.860;2023-12-14T05:59:43;2.30;;;2.10;;
2522;SDS011;1272;53.332;9.860;2023-12-14T06:02:08;1.60;;;1.50;;
2522;SDS011;1272;53.332;9.860;2023-12-14T06:04:34;2.53;;;2.20;;
2522;SDS011;1272;53.332;9.860;2023-12-14T06:07:00;1.83;;;1.73;;
2522;SDS011;1272;53.332;9.860;2023-12-14T06:09:26;2.03;;;1.70;;
2522;SDS011;1272;53.332;9.860;2023-12-14T06:11:59;2.00;;;1.90;;
2522;SDS011;1272;53.332;9.860;2023-12-14T06:14:26;2.50;;;1.63;;
2522;SDS011;1272;53.332;9.860;2023-12-14T06:16:52;1.70;;;1.60;;
2522;SDS011;1272;53.332;9.860;2023-12-14T06:19:17;1.70;;;1.43;;
2522;SDS011;1272;53.332;9.860;2023-12-14T06:21:43;2.53;;;2.20;;
2522;SDS011;1272;53.332;9.860;2023-12-14T06:24:09;5.27;;;2.30;;
2522;SDS011;1272;53.332;9.860;2023-12-14T06:26:34;2.10;;;2.00;;
2522;SDS011;1272;53.332;9.860;2023-12-14T06:29:00;2.77;;;2.53;;
2522;SDS011;1272;53.332;9.860;2023-12-14T06:31:26;2.57;;;2.37;;
2522;SDS011;1272;53.332;9.860;2023-12-14T06:33:52;2.10;;;1.97;;
2522;SDS011;1272;53.332;9.860;2023-12-14T06:36:17;2.10;;;2.00;;
2522;SDS011;1272;53.332;9.860;2023-12-14T06:38:43;3.17;;;2.50;;
2522;SDS011;1272;53.332;9.860;2023-12-14T06:41:17;2.63;;;1.90;;
2522;SDS011;1272;53.332;9.860;2023-12-14T06:43:44;2.30;;;2.10;;
2522;SDS011;1272;53.332;9.860;2023-12-14T06:46:09;3.07;;;2.63;;
2522;SDS011;1272;53.332;9.860;2023-12-14T06:48:35;2.50;;;2.20;;
2522;SDS011;1272;53.332;9.860;2023-12-14T06:51:01;3.80;;;2.83;;
2522;SDS011;1272;53.332;9.860;2023-12-14T06:53:26;2.23;;;2.13;;
2522;SDS011;1272;53.332;9.860;2023-12-14T06:55:52;5.60;;;2.73;;
2522;SDS011;1272;53.332;9.860;2023-12-14T06:58:18;2.57;;;2.40;;
2522;SDS011;1272;53.332;9.860;2023-12-14T07:00:43;3.97;;;2.50;;
2522;SDS011;1272;53.332;9.860;2023-12-14T07:03:09;7.70;;;4.00;;
2522;SDS011;1272;53.332;9.860;2023-12-14T07:05:35;3.03;;;2.73;;
2522;SDS011;1272;53.332;9.860;2023-12-14T07:08:01;5.57;;;3.47;;
2522;SDS011;1272;53.332;9.860;2023-12-14T07:10:27;2.50;;;2.10;;
2522;SDS011;1272;53.332;9.860;2023-12-14T07:12:52;3.27;;;2.97;;
2522;SDS011;1272;53.332;9.860;2023-12-14T07:15:18;6.70;;;3.30;;
2522;SDS011;1272;53.332;9.860;2023-12-14T07:17:44;3.60;;;2.57;;
2522;SDS011;1272;53.332;9.860;2023-12-14T07:20:09;2.10;;;2.00;;
2522;SDS011;1272;53.332;9.860;2023-12-14T07:22:36;2.73;;;2.27;;
2522;SDS011;1272;53.332;9.860;2023-12-14T07:25:02;3.03;;;2.77;;
2522;SDS011;1272;53.332;9.860;2023-12-14T07:27:28;2.90;;;2.20;;
2522;SDS011;1272;53.332;9.860;2023-12-14T07:29:54;2.50;;;2.30;;
2522;SDS011;1272;53.332;9.860;2023-12-14T07:32:20;2.77;;;2.57;;
2522;SDS011;1272;53.332;9.860;2023-12-14T07:34:46;3.03;;;2.67;;
2522;SDS011;1272;53.332;9.860;2023-12-14T07:37:12;2.43;;;2.23;;
2522;SDS011;1272;53.332;9.860;2023-12-14T07:39:38;4.63;;;2.20;;
2522;SDS011;1272;53.332;9.860;2023-12-14T07:42:04;3.80;;;2.43;;
2522;SDS011;1272;53.332;9.860;2023-12-14T07:44:30;2.97;;;1.80;;
2522;SDS011;1272;53.332;9.860;2023-12-14T07:46:57;3.47;;;2.10;;
2522;SDS011;1272;53.332;9.860;2023-12-14T07:49:25;2.67;;;2.47;;
2522;SDS011;1272;53.332;9.860;2023-12-14T07:51:51;6.87;;;3.20;;
2522;SDS011;1272;53.332;9.860;2023-12-14T07:54:17;2.17;;;1.90;;
2522;SDS011;1272;53.332;9.860;2023-12-14T07:56:43;2.73;;;2.60;;
2522;SDS011;1272;53.332;9.860;2023-12-14T07:59:09;2.67;;;2.47;;
2522;SDS011;1272;53.332;9.860;2023-12-14T08:01:35;2.30;;;2.10;;
2522;SDS011;1272;53.332;9.860;2023-12-14T08:04:01;4.27;;;3.37;;
2522;SDS011;1272;53.332;9.860;2023-12-14T08:06:27;3.70;;;2.67;;
2522;SDS011;1272;53.332;9.860;2023-12-14T08:08:53;5.23;;;3.93;;
2522;SDS011;1272;53.332;9.860;2023-12-14T08:11:19;3.93;;;2.70;;
2522;SDS011;1272;53.332;9.860;2023-12-14T08:13:45;3.17;;;2.87;;
2522;SDS011;1272;53.332;9.860;2023-12-14T08:16:12;4.30;;;2.60;;
2522;SDS011;1272;53.332;9.860;2023-12-14T08:18:38;2.90;;;2.70;;
2522;SDS011;1272;53.332;9.860;2023-12-14T08:21:04;3.63;;;2.50;;
2522;SDS011;1272;53.332;9.860;2023-12-14T08:23:29;3.43;;;2.47;;
2522;SDS011;1272;53.332;9.860;2023-12-14T08:25:55;2.67;;;2.47;;
2522;SDS011;1272;53.332;9.860;2023-12-14T08:28:22;6.93;;;3.17;;
2522;SDS011;1272;53.332;9.860;2023-12-14T08:30:48;8.60;;;4.00;;
2522;SDS011;1272;53.332;9.860;2023-12-14T08:33:14;4.60;;;3.03;;
2522;SDS011;1272;53.332;9.860;2023-12-14T08:35:40;3.80;;;3.40;;
2522;SDS011;1272;53.332;9.860;2023-12-14T08:38:06;2.83;;;2.63;;
2522;SDS011;1272;53.332;9.860;2023-12-14T08:40:32;4.13;;;3.30;;
2522;SDS011;1272;53.332;9.860;2023-12-14T08:42:57;4.67;;;3.50;;
2522;SDS011;1272;53.332;9.860;2023-12-14T08:45:23;7.50;;;3.80;;
2522;SDS011;1272;53.332;9.860;2023-12-14T08:47:49;5.20;;;3.40;;
2522;SDS011;1272;53.332;9.860;2023-12-14T08:50:15;3.03;;;2.83;;
2522;SDS011;1272;53.332;9.860;2023-12-14T08:52:41;3.87;;;3.40;;
2522;SDS011;1272;53.332;9.860;2023-12-14T08:55:07;6.00;;;4.00;;
2522;SDS011;1272;53.332;9.860;2023-12-14T08:57:34;4.20;;;2.90;;
2522;SDS011;1272;53.332;9.860;2023-12-14T09:00:00;4.73;;;3.20;;
2522;SDS011;1272;53.332;9.860;2023-12-14T09:02:26;3.90;;;3.53;;
2522;SDS011;1272;53.332;9.860;2023-12-14T09:04:52;4.70;;;3.23;;
2522;SDS011;1272;53.332;9.860;2023-12-14T09:07:17;3.33;;;3.03;;
2522;SDS011;1272;53.332;9.860;2023-12-14T09:09:43;6.67;;;4.57;;
2522;SDS011;1272;53.332;9.860;2023-12-14T09:12:09;4.27;;;3.07;;
2522;SDS011;1272;53.332;9.860;2023-12-14T09:14:35;5.47;;;4.27;;
2522;SDS011;1272;53.332;9.860;2023-12-14T09:17:01;6.17;;;4.43;;
2522;SDS011;1272;53.332;9.860;2023-12-14T09:19:28;6.10;;;3.70;;
2522;SDS011;1272;53.332;9.860;2023-12-14T09:21:55;5.27;;;4.20;;
2522;SDS011;1272;53.332;9.860;2023-12-14T09:24:21;7.33;;;4.30;;
2522;SDS011;1272;53.332;9.860;2023-12-14T09:26:46;6.43;;;3.90;;
2522;SDS011;1272;53.332;9.860;2023-12-14T09:29:12;4.20;;;3.57;;
2522;SDS011;1272;53.332;9.860;2023-12-14T09:31:42;4.83;;;3.40;;
2522;SDS011;1272;53.332;9.860;2023-12-14T09:34:09;4.93;;;3.60;;
2522;SDS011;1272;53.332;9.860;2023-12-14T09:36:36;6.33;;;4.73;;
2522;SDS011;1272;53.332;9.860;2023-12-14T09:39:02;3.60;;;2.77;;
2522;SDS011;1272;53.332;9.860;2023-12-14T09:41:28;4.93;;;4.10;;
2522;SDS011;1272;53.332;9.860;2023-12-14T09:43:54;4.27;;;3.50;;
2522;SDS011;1272;53.332;9.860;2023-12-14T09:46:20;5.00;;;3.70;;
2522;SDS011;1272;53.332;9.860;2023-12-14T09:48:48;3.47;;;3.07;;
2522;SDS011;1272;53.332;9.860;2023-12-14T09:51:15;4.60;;;3.20;;
2522;SDS011;1272;53.332;9.860;2023-12-14T09:53:42;4.03;;;3.63;;
2522;SDS011;1272;53.332;9.860;2023-12-14T09:56:08;4.60;;;3.63;;
2522;SDS011;1272;53.332;9.860;2023-12-14T09:58:34;3.60;;;3.20;;
2522;SDS011;1272;53.332;9.860;2023-12-14T10:01:00;3.83;;;3.50;;
2522;SDS011;1272;53.332;9.860;2023-12-14T10:03:29;5.00;;;3.30;;
2522;SDS011;1272;53.332;9.860;2023-12-14T10:05:55;4.23;;;3.57;;
2522;SDS011;1272;53.332;9.860;2023-12-14T10:08:22;4.70;;;3.87;;
2522;SDS011;1272;53.332;9.860;2023-12-14T10:10:49;7.63;;;4.07;;
2522;SDS011;1272;53.332;9.860;2023-12-14T10:13:17;5.73;;;4.13;;
2522;SDS011;1272;53.332;9.860;2023-12-14T10:15:44;5.17;;;4.13;;
2522;SDS011;1272;53.332;9.860;2023-12-14T10:18:23;4.83;;;3.27;;
2522;SDS011;1272;53.332;9.860;2023-12-14T10:20:50;6.60;;;4.03;;
2522;SDS011;1272;53.332;9.860;2023-12-14T10:23:16;4.73;;;4.03;;
2522;SDS011;1272;53.332;9.860;2023-12-14T10:25:43;3.40;;;3.10;;
2522;SDS011;1272;53.332;9.860;2023-12-14T10:28:11;6.67;;;4.40;;
2522;SDS011;1272;53.332;9.860;2023-12-14T10:30:38;5.67;;;3.60;;
2522;SDS011;1272;53.332;9.860;2023-12-14T10:33:04;4.07;;;3.60;;
2522;SDS011;1272;53.332;9.860;2023-12-14T10:35:30;4.23;;;3.23;;
2522;SDS011;1272;53.332;9.860;2023-12-14T10:37:56;5.50;;;3.93;;
2522;SDS011;1272;53.332;9.860;2023-12-14T10:40:26;4.77;;;3.70;;
2522;SDS011;1272;53.332;9.860;2023-12-14T10:42:53;4.70;;;4.10;;
2522;SDS011;1272;53.332;9.860;2023-12-14T10:45:22;5.00;;;4.03;;
2522;SDS011;1272;53.332;9.860;2023-12-14T10:47:52;4.57;;;3.37;;
2522;SDS011;1272;53.332;9.860;2023-12-14T10:50:18;4.90;;;4.50;;
2522;SDS011;1272;53.332;9.860;2023-12-14T10:52:44;5.20;;;4.60;;
2522;SDS011;1272;53.332;9.860;2023-12-14T10:58:10;3.80;;;3.00;;
2522;SDS011;1272;53.332;9.860;2023-12-14T11:00:37;4.10;;;3.20;;
2522;SDS011;1272;53.332;9.860;2023-12-14T11:03:03;6.17;;;3.60;;
2522;SDS011;1272;53.332;9.860;2023-12-14T11:05:31;4.83;;;3.77;;
2522;SDS011;1272;53.332;9.860;2023-12-14T11:08:05;4.50;;;3.60;;
2522;SDS011;1272;53.332;9.860;2023-12-14T11:10:38;4.03;;;3.70;;
2522;SDS011;1272;53.332;9.860;2023-12-14T11:13:09;4.57;;;4.17;;
2522;SDS011;1272;53.332;9.860;2023-12-14T11:15:37;4.03;;;3.60;;
2522;SDS011;1272;53.332;9.860;2023-12-14T11:23:15;3.47;;;3.17;;
2522;SDS011;1272;53.332;9.860;2023-12-14T11:25:42;4.10;;;3.70;;
2522;SDS011;1272;53.332;9.860;2023-12-14T11:28:09;7.03;;;3.50;;
2522;SDS011;1272;53.332;9.860;2023-12-14T11:30:35;4.20;;;3.73;;
2522;SDS011;1272;53.332;9.860;2023-12-14T11:33:02;4.77;;;3.90;;
2522;SDS011;1272;53.332;9.860;2023-12-14T11:35:28;4.40;;;3.97;;
2522;SDS011;1272;53.332;9.860;2023-12-14T11:37:55;3.20;;;2.97;;
2522;SDS011;1272;53.332;9.860;2023-12-14T11:40:25;4.30;;;3.90;;
2522;SDS011;1272;53.332;9.860;2023-12-14T11:43:01;4.83;;;3.50;;
2522;SDS011;1272;53.332;9.860;2023-12-14T11:45:33;3.67;;;3.37;;
2522;SDS011;1272;53.332;9.860;2023-12-14T11:47:59;5.70;;;5.30;;
2522;SDS011;1272;53.332;9.860;2023-12-14T11:50:26;5.40;;;4.23;;
2522;SDS011;1272;53.332;9.860;2023-12-14T11:52:52;10.67;;;4.13;;
2522;SDS011;1272;53.332;9.860;2023-12-14T11:55:18;4.63;;;3.27;;
2522;SDS011;1272;53.332;9.860;2023-12-14T11:57:46;3.40;;;3.10;;
2522;SDS011;1272;53.332;9.860;2023-12-14T12:00:13;4.13;;;3.83;;
2522;SDS011;1272;53.332;9.860;2023-12-14T12:02:39;5.50;;;4.07;;
2522;SDS011;1272;53.332;9.860;2023-12-14T12:05:08;4.77;;;3.80;;
2522;SDS011;1272;53.332;9.860;2023-12-14T12:07:38;4.23;;;3.77;;
2522;SDS011;1272;53.332;9.860;2023-12-14T12:10:04;4.43;;;3.57;;
2522;SDS011;1272;53.332;9.860;2023-12-14T12:12:32;6.47;;;3.53;;
2522;SDS011;1272;53.332;9.860;2023-12-14T12:14:59;4.27;;;3.93;;
2522;SDS011;1272;53.332;9.860;2023-12-14T12:17:24;5.73;;;4.17;;
2522;SDS011;1272;53.332;9.860;2023-12-14T12:19:51;6.40;;;4.33;;
2522;SDS011;1272;53.332;9.860;2023-12-14T12:22:17;3.77;;;3.43;;
2522;SDS011;1272;53.332;9.860;2023-12-14T12:24:42;6.03;;;4.00;;
2522;SDS011;1272;53.332;9.860;2023-12-14T12:27:08;6.10;;;3.60;;
2522;SDS011;1272;53.332;9.860;2023-12-14T12:29:34;6.33;;;4.07;;
2522;SDS011;1272;53.332;9.860;2023-12-14T12:32:00;3.70;;;3.40;;
2522;SDS011;1272;53.332;9.860;2023-12-14T12:34:25;3.87;;;3.50;;
2522;SDS011;1272;53.332;9.860;2023-12-14T12:36:51;5.83;;;4.63;;
2522;SDS011;1272;53.332;9.860;2023-12-14T12:39:17;6.83;;;4.50;;
2522;SDS011;1272;53.332;9.860;2023-12-14T12:41:42;4.37;;;3.83;;
2522;SDS011;1272;53.332;9.860;2023-12-14T12:44:08;5.23;;;4.50;;
2522;SDS011;1272;53.332;9.860;2023-12-14T12:46:34;5.20;;;3.70;;
2522;SDS011;1272;53.332;9.860;2023-12-14T12:49:03;6.43;;;4.67;;
2522;SDS011;1272;53.332;9.860;2023-12-14T12:51:30;6.30;;;3.60;;
2522;SDS011;1272;53.332;9.860;2023-12-14T12:53:57;6.80;;;4.20;;
2522;SDS011;1272;53.332;9.860;2023-12-14T12:56:23;5.50;;;4.00;;
2522;SDS011;1272;53.332;9.860;2023-12-14T12:58:50;5.00;;;4.10;;
2522;SDS011;1272;53.332;9.860;2023-12-14T13:01:21;4.27;;;3.63;;
2522;SDS011;1272;53.332;9.860;2023-12-14T13:06:18;4.17;;;3.80;;
2522;SDS011;1272;53.332;9.860;2023-12-14T13:08:43;5.90;;;4.07;;
2522;SDS011;1272;53.332;9.860;2023-12-14T13:11:09;5.93;;;3.80;;
2522;SDS011;1272;53.332;9.860;2023-12-14T13:13:34;5.30;;;3.37;;
2522;SDS011;1272;53.332;9.860;2023-12-14T13:16:00;3.67;;;3.37;;
2522;SDS011;1272;53.332;9.860;2023-12-14T13:18:26;5.23;;;3.37;;
2522;SDS011;1272;53.332;9.860;2023-12-14T13:20:51;10.40;;;4.63;;
2522;SDS011;1272;53.332;9.860;2023-12-14T13:23:19;4.40;;;3.43;;
2522;SDS011;1272;53.332;9.860;2023-12-14T13:25:45;3.80;;;3.30;;
2522;SDS011;1272;53.332;9.860;2023-12-14T13:28:11;3.40;;;3.07;;
2522;SDS011;1272;53.332;9.860;2023-12-14T13:30:37;5.40;;;4.90;;
2522;SDS011;1272;53.332;9.860;2023-12-14T13:33:02;4.60;;;4.07;;
2522;SDS011;1272;53.332;9.860;2023-12-14T13:35:29;4.90;;;3.67;;
2522;SDS011;1272;53.332;9.860;2023-12-14T13:37:54;3.50;;;2.70;;
2522;SDS011;1272;53.332;9.860;2023-12-14T13:40:20;4.00;;;3.60;;
2522;SDS011;1272;53.332;9.860;2023-12-14T13:42:46;3.30;;;2.97;;
2522;SDS011;1272;53.332;9.860;2023-12-14T13:45:12;3.63;;;3.40;;
2522;SDS011;1272;53.332;9.860;2023-12-14T13:47:38;3.03;;;2.80;;
2522;SDS011;1272;53.332;9.860;2023-12-14T13:50:04;5.60;;;3.83;;
2522;SDS011;1272;53.332;9.860;2023-12-14T13:52:30;5.17;;;4.30;;
2522;SDS011;1272;53.332;9.860;2023-12-14T13:54:55;5.97;;;3.73;;
2522;SDS011;1272;53.332;9.860;2023-12-14T13:57:24;4.70;;;3.97;;
2522;SDS011;1272;53.332;9.860;2023-12-14T13:59:50;4.93;;;3.80;;
2522;SDS011;1272;53.332;9.860;2023-12-14T14:02:15;5.10;;;4.00;;
2522;SDS011;1272;53.332;9.860;2023-12-14T14:04:41;4.80;;;4.40;;
2522;SDS011;1272;53.332;9.860;2023-12-14T14:07:07;6.30;;;4.00;;
2522;SDS011;1272;53.332;9.860;2023-12-14T14:09:32;7.80;;;4.60;;
2522;SDS011;1272;53.332;9.860;2023-12-14T14:11:58;5.47;;;4.80;;
2522;SDS011;1272;53.332;9.860;2023-12-14T14:14:24;7.20;;;5.43;;
2522;SDS011;1272;53.332;9.860;2023-12-14T14:16:49;5.23;;;4.20;;
2522;SDS011;1272;53.332;9.860;2023-12-14T14:19:15;5.53;;;3.57;;
2522;SDS011;1272;53.332;9.860;2023-12-14T14:21:41;6.83;;;3.70;;
2522;SDS011;1272;53.332;9.860;2023-12-14T14:24:06;5.30;;;3.30;;
2522;SDS011;1272;53.332;9.860;2023-12-14T14:26:32;5.17;;;3.93;;
2522;SDS011;1272;53.332;9.860;2023-12-14T14:28:58;5.03;;;3.70;;
2522;SDS011;1272;53.332;9.860;2023-12-14T14:31:27;3.73;;;3.40;;
2522;SDS011;1272;53.332;9.860;2023-12-14T14:34:00;3.77;;;3.33;;
2522;SDS011;1272;53.332;9.860;2023-12-14T14:36:26;3.50;;;3.20;;
2522;SDS011;1272;53.332;9.860;2023-12-14T14:38:51;3.80;;;3.50;;
2522;SDS011;1272;53.332;9.860;2023-12-14T14:41:19;5.60;;;2.93;;
2522;SDS011;1272;53.332;9.860;2023-12-14T14:43:45;3.80;;;2.93;;
2522;SDS011;1272;53.332;9.860;2023-12-14T14:46:11;2.93;;;2.63;;
2522;SDS011;1272;53.332;9.860;2023-12-14T14:48:37;4.27;;;3.50;;
2522;SDS011;1272;53.332;9.860;2023-12-14T14:51:03;3.87;;;3.50;;
2522;SDS011;1272;53.332;9.860;2023-12-14T14:53:29;4.43;;;4.03;;
2522;SDS011;1272;53.332;9.860;2023-12-14T14:55:55;4.57;;;3.90;;
2522;SDS011;1272;53.332;9.860;2023-12-14T14:58:21;5.17;;;4.07;;
2522;SDS011;1272;53.332;9.860;2023-12-14T15:00:47;6.90;;;4.60;;
2522;SDS011;1272;53.332;9.860;2023-12-14T15:03:13;5.40;;;3.97;;
2522;SDS011;1272;53.332;9.860;2023-12-14T15:05:39;5.33;;;4.13;;
2522;SDS011;1272;53.332;9.860;2023-12-14T15:08:05;5.07;;;3.60;;
2522;SDS011;1272;53.332;9.860;2023-12-14T15:10:34;3.93;;;3.60;;
2522;SDS011;1272;53.332;9.860;2023-12-14T15:13:00;4.47;;;4.07;;
2522;SDS011;1272;53.332;9.860;2023-12-14T15:15:26;6.70;;;3.67;;
2522;SDS011;1272;53.332;9.860;2023-12-14T15:17:52;3.23;;;3.03;;
2522;SDS011;1272;53.332;9.860;2023-12-14T15:20:20;4.53;;;3.87;;
2522;SDS011;1272;53.332;9.860;2023-12-14T15:22:46;4.63;;;4.27;;